Aviation Digital Data Service (ADDS)

Output produced by TAFs form (1111 UTC 24 January 2017)
found at http://www.aviationweather.gov/adds/tafs/
 
KMRB 240849Z 2409/2506 34010KT 5SM -RASN SCT008 OVC020 
     FM241500 31012KT P6SM BKN015 
     FM241800 31013G21KT P6SM BKN015 
     FM242100 31014G21KT P6SM BKN030 
     FM242300 31014G21KT P6SM SCT030 
     FM250300 30009KT P6SM FEW250